createdAt,value
2023-04-19T00:01:03.243Z,100.00
2023-04-19T00:04:05.253Z,100.00
2023-04-19T00:07:08.574Z,100.00
2023-04-19T00:10:10.715Z,100.00
2023-04-19T00:13:12.571Z,100.00
2023-04-19T00:16:14.388Z,100.00
2023-04-19T00:19:16.071Z,100.00
2023-04-19T00:22:19.304Z,100.00
2023-04-19T00:25:20.984Z,100.00
2023-04-19T00:28:23.949Z,100.00
2023-04-19T00:31:25.790Z,100.00
2023-04-19T00:34:27.741Z,100.00
2023-04-19T00:37:31.855Z,100.00
2023-04-19T00:40:33.852Z,100.00
2023-04-19T00:43:35.538Z,100.00
2023-04-19T00:46:37.887Z,100.00
2023-04-19T00:49:40.428Z,100.00
2023-04-19T00:52:44.025Z,100.00
2023-04-19T00:55:46.102Z,100.00
2023-04-19T00:58:49.158Z,100.00
2023-04-19T01:01:51.628Z,100.00
2023-04-19T01:04:53.374Z,100.00
2023-04-19T01:07:56.451Z,100.00
2023-04-19T01:10:58.160Z,100.00
2023-04-19T01:14:00.086Z,100.00
2023-04-19T01:17:01.947Z,100.00
2023-04-19T01:20:08.256Z,100.00
2023-04-19T01:23:12.435Z,100.00
2023-04-19T01:26:14.474Z,100.00
2023-04-19T01:29:17.682Z,100.00
2023-04-19T01:32:21.311Z,100.00
2023-04-19T01:35:23.686Z,100.00
2023-04-19T01:38:27.112Z,100.00
2023-04-19T01:41:29.673Z,100.00
2023-04-19T01:44:31.591Z,100.00
2023-04-19T01:47:35.104Z,100.00
2023-04-19T01:50:37.477Z,100.00
2023-04-19T01:53:41.017Z,100.00
2023-04-19T01:56:42.697Z,100.00
2023-04-19T01:59:45.160Z,100.00
2023-04-19T02:02:47.457Z,100.00
2023-04-19T02:05:50.488Z,100.00
2023-04-19T02:08:53.776Z,100.00
2023-04-19T02:11:55.548Z,100.00
2023-04-19T02:14:57.643Z,100.00
2023-04-19T02:18:06.985Z,100.00
2023-04-19T02:21:10.139Z,100.00
2023-04-19T02:24:13.699Z,100.00
2023-04-19T02:27:16.716Z,100.00
2023-04-19T02:30:20.074Z,100.00
2023-04-19T02:33:22.676Z,100.00
2023-04-19T02:36:24.595Z,100.00
2023-04-19T02:39:27.736Z,100.00
2023-04-19T02:42:29.609Z,100.00
2023-04-19T02:45:31.773Z,100.00
2023-04-19T02:48:33.768Z,100.00
2023-04-19T02:51:35.792Z,100.00
2023-04-19T02:54:38.958Z,100.00
2023-04-19T02:57:41.160Z,100.00
2023-04-19T03:00:44.852Z,100.00
2023-04-19T03:03:50.818Z,100.00
2023-04-19T03:06:53.095Z,100.00
2023-04-19T03:09:57.767Z,100.00
2023-04-19T03:13:00.560Z,100.00
2023-04-19T03:16:02.739Z,100.00
2023-04-19T03:19:06.583Z,100.00
2023-04-19T03:22:14.402Z,100.00
2023-04-19T03:25:18.196Z,100.00
2023-04-19T03:28:26.984Z,100.00
2023-04-19T03:31:48.343Z,100.00
2023-04-19T03:34:50.771Z,100.00
2023-04-19T03:37:52.587Z,100.00
2023-04-19T03:40:56.036Z,100.00
2023-04-19T03:44:00.798Z,100.00
2023-04-19T03:47:02.755Z,100.00
2023-04-19T03:50:10.402Z,100.00
2023-04-19T03:53:15.017Z,100.00
2023-04-19T03:56:18.353Z,100.00
2023-04-19T03:59:20.141Z,100.00
2023-04-19T04:02:24.204Z,100.00
2023-04-19T04:05:27.800Z,100.00
2023-04-19T04:08:29.638Z,100.00
2023-04-19T04:11:33.070Z,100.00
2023-04-19T04:14:35.318Z,100.00
2023-04-19T04:17:37.644Z,100.00
2023-04-19T04:20:41.337Z,100.00
2023-04-19T04:23:47.680Z,100.00
2023-04-19T04:27:03.718Z,100.00
2023-04-19T04:30:09.897Z,100.00
2023-04-19T04:33:11.993Z,100.00
2023-04-19T04:36:15.512Z,100.00
2023-04-19T04:39:18.269Z,100.00
2023-04-19T04:42:21.993Z,100.00
2023-04-19T04:45:24.006Z,100.00
2023-04-19T04:48:26.136Z,100.00
2023-04-19T04:51:28.851Z,100.00
2023-04-19T04:54:32.401Z,100.00
2023-04-19T04:57:36.110Z,100.00
2023-04-19T05:00:40.113Z,100.00
2023-04-19T05:03:43.975Z,100.00
2023-04-19T05:06:50.275Z,100.00
2023-04-19T05:09:57.457Z,100.00
2023-04-19T05:13:05.452Z,100.00
2023-04-19T05:16:09.705Z,100.00
2023-04-19T05:19:12.980Z,100.00
2023-04-19T05:22:20.382Z,100.00
2023-04-19T05:25:22.810Z,100.00
2023-04-19T05:28:26.171Z,100.00
2023-04-19T05:31:41.206Z,100.00
2023-04-19T05:34:53.121Z,100.00
2023-04-19T05:37:57.249Z,100.00
2023-04-19T05:40:59.604Z,100.00
2023-04-19T05:44:02.738Z,100.00
2023-04-19T05:47:04.948Z,100.00
2023-04-19T05:50:38.782Z,100.00
2023-04-19T05:54:06.375Z,100.00
2023-04-19T05:57:08.669Z,100.00
2023-04-19T06:00:13.384Z,100.00
2023-04-19T06:03:27.727Z,100.00
2023-04-19T06:06:33.775Z,100.00
2023-04-19T06:09:35.689Z,100.00
2023-04-19T06:12:37.735Z,100.00
2023-04-19T06:15:42.116Z,100.00
2023-04-19T06:18:44.073Z,100.00
2023-04-19T06:21:46.136Z,100.00
2023-04-19T06:24:48.494Z,100.00
2023-04-19T06:27:50.237Z,100.00
2023-04-19T06:30:53.339Z,100.00
2023-04-19T06:33:55.272Z,100.00
2023-04-19T06:36:57.201Z,100.00
2023-04-19T06:40:00.905Z,100.00
2023-04-19T06:43:02.650Z,100.00
2023-04-19T06:46:09.922Z,100.00
2023-04-19T06:49:11.694Z,100.00
2023-04-19T06:52:13.518Z,100.00
2023-04-19T06:55:15.452Z,100.00
2023-04-19T06:58:17.395Z,100.00
2023-04-19T07:01:20.491Z,100.00
2023-04-19T07:04:22.817Z,100.00
2023-04-19T07:07:24.964Z,100.00
2023-04-19T07:10:26.892Z,100.00
2023-04-19T07:13:28.693Z,100.00
2023-04-19T07:16:32.528Z,100.00
2023-04-19T07:19:36.399Z,100.00
2023-04-19T07:22:38.462Z,100.00
2023-04-19T07:25:40.170Z,100.00
2023-04-19T07:28:42.047Z,100.00
2023-04-19T07:31:45.253Z,100.00
2023-04-19T07:34:47.193Z,100.00
2023-04-19T07:37:49.199Z,100.00
2023-04-19T07:40:51.402Z,100.00
2023-04-19T07:43:53.605Z,100.00
2023-04-19T07:46:56.990Z,100.00
2023-04-19T07:49:58.887Z,100.00
2023-04-19T07:53:00.684Z,100.00
2023-04-19T07:56:02.346Z,100.00
2023-04-19T07:59:08.549Z,100.00
2023-04-19T08:02:12.767Z,100.00
2023-04-19T08:05:17.368Z,100.00
2023-04-19T08:08:20.088Z,100.00
2023-04-19T08:11:22.417Z,100.00
2023-04-19T08:14:34.819Z,100.00
2023-04-19T08:17:44.720Z,100.00
2023-04-19T08:20:47.237Z,100.00
2023-04-19T08:23:49.025Z,100.00
2023-04-19T08:26:54.058Z,100.00
2023-04-19T08:29:56.374Z,100.00
2023-04-19T08:32:59.662Z,100.00
2023-04-19T08:36:01.818Z,100.00
2023-04-19T08:39:24.872Z,100.00
2023-04-19T08:42:35.650Z,100.00
2023-04-19T08:45:39.306Z,100.00
2023-04-19T08:48:44.350Z,100.00
2023-04-19T08:51:49.099Z,100.00
2023-04-19T08:54:51.686Z,100.00
2023-04-19T08:57:53.652Z,100.00
2023-04-19T09:00:56.456Z,100.00
2023-04-19T09:04:10.391Z,100.00
2023-04-19T09:07:25.608Z,100.00
2023-04-19T09:10:27.545Z,100.00
2023-04-19T09:13:30.374Z,100.00
2023-04-19T09:16:32.246Z,100.00
2023-04-19T09:19:45.851Z,100.00
2023-04-19T09:23:04.730Z,100.00
2023-04-19T09:26:22.818Z,100.00
2023-04-19T09:29:25.802Z,100.00
2023-04-19T09:32:28.999Z,100.00
2023-04-19T09:35:42.403Z,100.00
2023-04-19T09:38:48.809Z,100.00
2023-04-19T09:41:51.943Z,100.00
2023-04-19T09:45:21.467Z,100.00
2023-04-19T09:48:19.450Z,100.00
2023-04-19T09:51:22.713Z,100.00
2023-04-19T09:54:28.695Z,100.00
2023-04-19T09:57:31.419Z,100.00
2023-04-19T10:00:41.940Z,100.00
2023-04-19T10:03:51.190Z,100.00
2023-04-19T10:10:16.140Z,100.00
2023-04-19T10:13:26.448Z,100.00
2023-04-19T10:16:30.749Z,100.00
2023-04-19T10:19:35.756Z,100.00
2023-04-19T10:22:39.099Z,100.00
2023-04-19T10:25:40.934Z,100.00
2023-04-19T10:28:43.128Z,100.00
2023-04-19T10:31:51.169Z,100.00
2023-04-19T10:34:56.697Z,100.00
2023-04-19T10:38:08.326Z,100.00
2023-04-19T10:41:16.955Z,100.00
2023-04-19T10:44:20.134Z,100.00
2023-04-19T10:47:44.274Z,100.00
2023-04-19T10:50:59.297Z,100.00
2023-04-19T10:54:03.335Z,100.00
2023-04-19T10:57:08.150Z,100.00
2023-04-19T11:00:21.410Z,100.00
2023-04-19T11:03:51.978Z,100.00
2023-04-19T11:07:01.812Z,100.00
2023-04-19T11:10:06.647Z,100.00
2023-04-19T11:13:08.411Z,100.00
2023-04-19T11:16:10.856Z,100.00
2023-04-19T11:19:15.490Z,100.00
2023-04-19T11:22:17.416Z,100.00
2023-04-19T11:25:22.124Z,100.00
2023-04-19T11:28:24.231Z,100.00
2023-04-19T11:31:26.452Z,100.00
2023-04-19T11:34:28.261Z,100.00
2023-04-19T11:37:33.761Z,100.00
2023-04-19T11:40:37.753Z,100.00
2023-04-19T11:43:40.248Z,100.00
2023-04-19T11:46:42.752Z,100.00
2023-04-19T11:49:44.732Z,100.00
2023-04-19T11:52:49.600Z,100.00
2023-04-19T11:55:54.560Z,100.00
2023-04-19T11:58:57.915Z,100.00
2023-04-19T12:02:08.032Z,100.00
2023-04-19T12:05:11.578Z,100.00
2023-04-19T12:08:13.489Z,100.00
2023-04-19T12:11:24.735Z,100.00
2023-04-19T12:14:27.118Z,100.00
2023-04-19T12:17:29.169Z,100.00
2023-04-19T12:20:32.976Z,100.00
2023-04-19T12:23:34.797Z,100.00
2023-04-19T12:26:55.839Z,100.00
2023-04-19T12:29:58.038Z,100.00
2023-04-19T12:32:59.886Z,100.00
2023-04-19T12:36:01.642Z,100.00
2023-04-19T12:39:03.729Z,100.00
2023-04-19T12:42:06.854Z,100.00
2023-04-19T12:45:09.857Z,100.00
2023-04-19T12:48:11.691Z,100.00
2023-04-19T12:51:13.397Z,100.00
2023-04-19T12:54:15.843Z,100.00
2023-04-19T12:57:19.235Z,100.00
2023-04-19T13:00:21.422Z,100.00
2023-04-19T13:03:23.451Z,100.00
2023-04-19T13:06:26.084Z,100.00
2023-04-19T13:09:29.595Z,100.00
2023-04-19T13:12:32.886Z,100.00
2023-04-19T13:15:35.432Z,100.00
2023-04-19T13:18:37.521Z,100.00
2023-04-19T13:21:39.504Z,100.00
2023-04-19T13:24:41.626Z,100.00
2023-04-19T13:27:47.513Z,100.00
2023-04-19T13:30:49.391Z,100.00
2023-04-19T13:33:51.740Z,100.00
2023-04-19T13:36:53.377Z,100.00
2023-04-19T13:40:03.908Z,100.00
2023-04-19T13:43:14.253Z,100.00
2023-04-19T13:46:17.311Z,100.00
2023-04-19T13:49:19.342Z,100.00
2023-04-19T13:52:23.321Z,100.00
2023-04-19T13:55:25.030Z,100.00
2023-04-19T13:58:28.151Z,95.75
2023-04-19T14:01:29.947Z,97.91
2023-04-19T14:04:32.541Z,94.70
2023-04-19T14:07:34.292Z,93.78
2023-04-19T14:10:36.691Z,92.48
2023-04-19T14:13:39.984Z,92.66
2023-04-19T14:16:41.934Z,92.77
2023-04-19T14:19:43.893Z,92.84
2023-04-19T14:22:47.409Z,92.12
2023-04-19T14:25:50.272Z,89.37
2023-04-19T14:28:54.029Z,87.37
2023-04-19T14:31:55.788Z,85.28
2023-04-19T14:34:57.566Z,88.32
2023-04-19T14:37:59.522Z,84.65
2023-04-19T14:41:02.005Z,90.54
2023-04-19T14:44:05.186Z,83.24
2023-04-19T14:47:07.597Z,83.53
2023-04-19T14:50:09.713Z,82.94
2023-04-19T14:53:11.503Z,81.89
2023-04-19T14:56:13.532Z,100.00
2023-04-19T14:59:17.122Z,100.00
2023-04-19T15:02:19.172Z,100.00
2023-04-19T15:05:22.270Z,100.00
2023-04-19T15:08:30.094Z,100.00
2023-04-19T15:15:01.026Z,66.66
2023-04-19T15:18:02.891Z,64.58
2023-04-19T15:21:05.770Z,64.25
2023-04-19T15:24:08.108Z,65.23
2023-04-19T15:27:10.104Z,65.62
2023-04-19T15:30:13.820Z,64.69
2023-04-19T15:33:15.731Z,60.96
2023-04-19T15:36:17.720Z,58.16
2023-04-19T15:39:19.591Z,61.00
2023-04-19T15:42:21.436Z,56.89
2023-04-19T15:45:24.811Z,62.03
2023-04-19T15:48:28.503Z,58.37
2023-04-19T15:51:30.396Z,60.17
2023-04-19T15:54:32.069Z,62.49
2023-04-19T15:57:33.731Z,61.96
2023-04-19T16:00:37.088Z,65.08
2023-04-19T16:03:39.358Z,73.13
2023-04-19T16:06:41.257Z,78.64
2023-04-19T16:09:43.008Z,77.25
2023-04-19T16:12:45.034Z,82.50
2023-04-19T16:15:48.439Z,83.26
2023-04-19T16:18:51.113Z,81.24
2023-04-19T16:21:53.165Z,82.31
2023-04-19T16:24:56.779Z,83.07
2023-04-19T16:27:59.783Z,84.44
2023-04-19T16:31:03.236Z,86.37
2023-04-19T16:34:06.565Z,86.08
2023-04-19T16:37:08.931Z,87.42
2023-04-19T16:40:11.471Z,85.06
2023-04-19T16:43:13.309Z,84.23
2023-04-19T16:46:16.599Z,86.66
2023-04-19T16:49:18.825Z,84.40
2023-04-19T16:52:20.945Z,85.06
2023-04-19T16:55:22.803Z,83.33
2023-04-19T16:58:24.524Z,88.23
2023-04-19T17:01:28.094Z,83.93
2023-04-19T17:04:32.414Z,78.36
2023-04-19T17:07:34.879Z,77.53
2023-04-19T17:10:40.449Z,77.55
2023-04-19T17:13:42.640Z,78.23
2023-04-19T17:16:46.940Z,79.38
2023-04-19T17:19:49.113Z,79.82
2023-04-19T17:22:51.597Z,80.48
2023-04-19T17:25:55.461Z,84.80
2023-04-19T17:29:01.203Z,84.88
2023-04-19T17:32:06.815Z,88.42
2023-04-19T17:35:09.072Z,90.94
2023-04-19T17:38:12.559Z,87.07
2023-04-19T17:41:17.777Z,87.21
2023-04-19T17:44:21.513Z,86.02
2023-04-19T17:47:25.338Z,95.12
2023-04-19T17:50:27.570Z,95.47
2023-04-19T17:53:29.750Z,96.62
2023-04-19T17:56:31.542Z,99.79
2023-04-19T17:59:37.094Z,100.00
2023-04-19T18:02:40.893Z,100.00
2023-04-19T18:05:43.814Z,100.00
2023-04-19T18:12:07.400Z,100.00
2023-04-19T18:15:11.038Z,100.00
2023-04-19T18:18:14.166Z,100.00
2023-04-19T18:21:18.404Z,100.00
2023-04-19T18:24:20.506Z,100.00
2023-04-19T18:27:22.726Z,100.00
2023-04-19T18:30:24.883Z,100.00
2023-04-19T18:33:29.905Z,100.00
2023-04-19T18:36:32.102Z,100.00
2023-04-19T18:39:37.998Z,100.00
2023-04-19T18:42:40.193Z,100.00
2023-04-19T18:45:42.124Z,100.00
2023-04-19T18:48:46.300Z,100.00
2023-04-19T18:51:48.845Z,100.00
2023-04-19T18:54:56.165Z,100.00
2023-04-19T18:57:58.162Z,100.00
2023-04-19T19:01:02.392Z,100.00
2023-04-19T19:07:27.775Z,100.00
2023-04-19T19:11:07.065Z,100.00
2023-04-19T19:14:02.885Z,100.00
2023-04-19T19:17:06.629Z,100.00
2023-04-19T19:20:12.216Z,100.00
2023-04-19T19:23:14.608Z,100.00
2023-04-19T19:26:16.699Z,100.00
2023-04-19T19:29:22.338Z,100.00
2023-04-19T19:32:24.419Z,100.00
2023-04-19T19:35:27.933Z,100.00
2023-04-19T19:38:29.635Z,100.00
2023-04-19T19:42:03.579Z,100.00
2023-04-19T19:44:54.185Z,100.00
2023-04-19T19:47:58.936Z,100.00
2023-04-19T19:51:31.381Z,100.00
2023-04-19T19:54:27.463Z,100.00
2023-04-19T19:58:18.551Z,100.00
2023-04-19T20:00:55.494Z,100.00
2023-04-19T20:03:58.246Z,100.00
2023-04-19T20:10:11.805Z,100.00
2023-04-19T20:13:14.385Z,100.00
2023-04-19T20:16:18.746Z,100.00
2023-04-19T20:19:20.921Z,100.00
2023-04-19T20:22:24.186Z,100.00
2023-04-19T20:25:27.320Z,100.00
2023-04-19T20:28:29.111Z,100.00
2023-04-19T20:31:31.071Z,100.00
2023-04-19T20:34:34.020Z,100.00
2023-04-19T20:37:41.807Z,100.00
2023-04-19T20:40:44.199Z,100.00
2023-04-19T20:43:45.870Z,100.00
2023-04-19T20:46:49.395Z,100.00
2023-04-19T20:49:51.678Z,100.00
2023-04-19T20:52:55.122Z,100.00
2023-04-19T20:55:56.886Z,100.00
2023-04-19T20:58:58.689Z,100.00
2023-04-19T21:02:00.829Z,100.00
2023-04-19T21:05:02.787Z,100.00
2023-04-19T21:08:06.034Z,100.00
2023-04-19T21:11:07.775Z,100.00
2023-04-19T21:14:09.730Z,100.00
2023-04-19T21:17:11.696Z,100.00
2023-04-19T21:20:14.724Z,100.00
2023-04-19T21:23:17.936Z,100.00
2023-04-19T21:26:19.728Z,100.00
2023-04-19T21:29:21.880Z,100.00
2023-04-19T21:32:23.911Z,100.00
2023-04-19T21:35:26.040Z,100.00
2023-04-19T21:38:29.180Z,100.00
2023-04-19T21:41:32.668Z,100.00
2023-04-19T21:44:35.004Z,100.00
2023-04-19T21:47:36.756Z,100.00
2023-04-19T21:50:38.445Z,100.00
2023-04-19T21:53:41.787Z,100.00
2023-04-19T21:56:43.841Z,100.00
2023-04-19T21:59:45.608Z,100.00
2023-04-19T22:02:47.540Z,100.00
2023-04-19T22:05:49.539Z,100.00
2023-04-19T22:08:53.696Z,100.00
2023-04-19T22:11:55.609Z,100.00
2023-04-19T22:14:57.951Z,100.00
2023-04-19T22:18:02.917Z,100.00
2023-04-19T22:21:06.753Z,100.00
2023-04-19T22:24:10.757Z,100.00
2023-04-19T22:27:12.747Z,100.00
2023-04-19T22:30:14.996Z,100.00
2023-04-19T22:33:37.007Z,100.00
2023-04-19T22:36:38.787Z,100.00
2023-04-19T22:39:41.861Z,100.00
2023-04-19T22:42:43.621Z,100.00
2023-04-19T22:45:47.754Z,100.00
2023-04-19T22:48:49.856Z,100.00
2023-04-19T22:51:51.700Z,100.00
2023-04-19T22:54:54.719Z,100.00
2023-04-19T22:57:56.688Z,100.00
2023-04-19T23:00:58.512Z,100.00
2023-04-19T23:04:00.248Z,100.00
2023-04-19T23:07:02.946Z,100.00
2023-04-19T23:10:07.662Z,100.00
2023-04-19T23:13:15.817Z,100.00
2023-04-19T23:16:18.238Z,100.00
2023-04-19T23:19:22.866Z,100.00
2023-04-19T23:22:24.559Z,100.00
2023-04-19T23:25:27.768Z,100.00
2023-04-19T23:28:29.871Z,100.00
2023-04-19T23:31:31.990Z,100.00
2023-04-19T23:34:33.699Z,100.00
2023-04-19T23:37:36.669Z,100.00
2023-04-19T23:40:41.513Z,100.00
2023-04-19T23:43:45.457Z,100.00
2023-04-19T23:46:47.415Z,100.00
2023-04-19T23:49:49.304Z,100.00
2023-04-19T23:52:51.996Z,100.00
2023-04-19T23:55:55.197Z,100.00
2023-04-19T23:58:57.418Z,100.00
